Time,TemperatureF,DewpointF,PressureIn,WindDirection,WindDirectionDegrees,WindSpeedMPH,WindSpeedGustMPH,Humidity,HourlyPrecipIn,Conditions,Clouds,dailyrainin,SoftwareType,DateUTC
2013-01-31 00:01:00,51.6,49.3,29.37,SSW,206,16.8,21.3,92,0.00,,,0.00,WUHU21623XXSP,2013-01-31 05:01:00,
2013-01-31 00:04:00,51.6,49.3,29.37,NW,318,21.3,21.3,92,0.00,,,0.00,WUHU21623XXSP,2013-01-31 05:04:00,
2013-01-31 00:10:00,51.6,49.3,29.37,South,183,19.2,21.3,92,0.00,,,0.00,WUHU21623XXSP,2013-01-31 05:10:00,
2013-01-31 00:12:00,51.6,49.3,29.37,NW,318,21.3,21.3,92,0.00,,,0.00,WUHU21623XXSP,2013-01-31 05:12:00,
2013-01-31 00:17:00,51.6,49.3,29.36,South,183,22.1,22.1,92,0.00,,,0.00,WUHU21623XXSP,2013-01-31 05:17:00,
2013-01-31 00:24:00,51.4,49.3,29.35,SSW,206,14.3,22.1,92,0.00,,,0.00,WUHU21623XXSP,2013-01-31 05:24:00,
2013-01-31 00:31:00,51.3,49.0,29.34,NW,318,21.3,21.3,92,0.00,,,0.00,WUHU21623XXSP,2013-01-31 05:31:00,
2013-01-31 00:38:00,51.1,48.8,29.34,NW,318,21.3,21.3,92,0.00,,,0.00,WUHU21623XXSP,2013-01-31 05:38:00,
2013-01-31 00:43:00,51.1,48.8,29.33,NW,318,21.3,21.3,92,0.00,,,0.00,WUHU21623XXSP,2013-01-31 05:43:00,
2013-01-31 00:48:00,50.9,48.6,29.33,NW,318,21.3,21.3,92,0.00,,,0.00,WUHU21623XXSP,2013-01-31 05:48:00,
2013-01-31 00:53:00,50.7,48.4,29.32,NW,311,18.5,21.3,92,0.00,,,0.00,WUHU21623XXSP,2013-01-31 05:53:00,
2013-01-31 00:59:00,50.7,48.4,29.32,NW,318,21.3,21.3,92,0.00,,,0.00,WUHU21623XXSP,2013-01-31 05:59:00,
2013-01-31 01:05:00,50.7,48.4,29.32,South,175,13.2,24.8,92,0.00,,,0.00,WUHU21623XXSP,2013-01-31 06:05:00,
2013-01-31 01:12:00,50.7,48.4,29.31,NW,318,21.3,24.8,92,0.00,,,0.00,WUHU21623XXSP,2013-01-31 06:12:00,
2013-01-31 01:19:00,50.7,48.4,29.30,NW,318,21.3,21.3,92,0.00,,,0.00,WUHU21623XXSP,2013-01-31 06:19:00,
2013-01-31 01:24:00,50.7,48.7,29.29,West,262,19.7,21.3,93,0.00,,,0.00,WUHU21623XXSP,2013-01-31 06:24:00,
2013-01-31 01:31:00,50.9,48.9,29.28,South,183,16.6,21.3,93,0.00,,,0.00,WUHU21623XXSP,2013-01-31 06:31:00,
2013-01-31 01:38:00,51.3,49.2,29.27,NW,318,21.3,21.3,93,0.00,,,0.00,WUHU21623XXSP,2013-01-31 06:38:00,
2013-01-31 01:43:00,51.4,49.4,29.27,SSE,160,17.8,21.3,93,0.00,,,0.00,WUHU21623XXSP,2013-01-31 06:43:00,
2013-01-31 01:48:00,51.4,49.4,29.26,West,279,17.5,21.3,93,0.00,,,0.00,WUHU21623XXSP,2013-01-31 06:48:00,
2013-01-31 01:55:00,51.1,49.2,29.25,South,176,13.4,21.3,93,0.00,,,0.00,WUHU21623XXSP,2013-01-31 06:55:00,
2013-01-31 02:01:00,50.9,48.9,29.24,SSW,206,17.2,22.4,93,0.00,,,0.00,WUHU21623XXSP,2013-01-31 07:01:00,
2013-01-31 02:08:00,50.7,48.7,29.23,NW,318,21.3,21.3,93,0.00,,,0.00,WUHU21623XXSP,2013-01-31 07:08:00,
2013-01-31 02:14:00,50.5,48.5,29.22,NW,318,21.3,21.3,93,0.00,,,0.00,WUHU21623XXSP,2013-01-31 07:14:00,
2013-01-31 02:20:00,50.4,48.5,29.22,South,183,12.5,24.4,93,0.00,,,0.00,WUHU21623XXSP,2013-01-31 07:20:00,
2013-01-31 02:25:00,50.4,48.3,29.21,NW,318,21.3,21.3,93,0.00,,,0.00,WUHU21623XXSP,2013-01-31 07:25:00,
2013-01-31 02:32:00,50.4,48.3,29.19,South,183,10.3,21.3,93,0.00,,,0.00,WUHU21623XXSP,2013-01-31 07:32:00,
2013-01-31 02:37:00,50.5,48.5,29.18,SE,138,5.6,21.3,93,0.00,,,0.00,WUHU21623XXSP,2013-01-31 07:37:00,
2013-01-31 02:42:00,50.7,48.7,29.18,South,183,5.8,21.3,93,0.00,,,0.00,WUHU21623XXSP,2013-01-31 07:42:00,
2013-01-31 02:48:00,50.9,48.7,29.18,NW,318,21.3,21.3,93,0.00,,,0.00,WUHU21623XXSP,2013-01-31 07:48:00,
2013-01-31 02:54:00,51.1,49.1,29.16,NW,318,21.3,21.3,93,0.00,,,0.00,WUHU21623XXSP,2013-01-31 07:54:00,
2013-01-31 03:01:00,51.3,49.2,29.14,SSW,206,21.7,21.7,93,0.00,,,0.00,WUHU21623XXSP,2013-01-31 08:01:00,
2013-01-31 03:06:00,51.6,49.6,29.14,NW,318,21.3,21.7,93,0.00,,,0.00,WUHU21623XXSP,2013-01-31 08:06:00,
2013-01-31 03:12:00,51.6,49.6,29.13,South,183,17.9,21.7,93,0.00,,,0.00,WUHU21623XXSP,2013-01-31 08:12:00,
2013-01-31 03:17:00,52.0,50.0,29.12,SSW,206,16.6,21.3,93,0.00,,,0.00,WUHU21623XXSP,2013-01-31 08:17:00,
2013-01-31 03:23:00,52.3,50.3,29.11,NW,318,21.3,21.3,93,0.00,,,0.00,WUHU21623XXSP,2013-01-31 08:23:00,
2013-01-31 03:28:00,52.5,50.5,29.09,NW,310,16.3,21.3,93,0.00,,,0.00,WUHU21623XXSP,2013-01-31 08:28:00,
2013-01-31 03:34:00,53.1,50.9,29.09,SSW,206,16.8,21.3,93,0.00,,,0.00,WUHU21623XXSP,2013-01-31 08:34:00,
2013-01-31 03:40:00,53.4,51.2,29.09,South,183,20.6,20.6,93,0.00,,,0.00,WUHU21623XXSP,2013-01-31 08:40:00,
2013-01-31 03:45:00,53.8,51.8,29.08,NW,318,21.3,21.3,93,0.00,,,0.00,WUHU21623XXSP,2013-01-31 08:45:00,
2013-01-31 03:51:00,54.1,51.9,29.07,SSE,161,19.2,21.3,93,0.00,,,0.00,WUHU21623XXSP,2013-01-31 08:51:00,
2013-01-31 03:57:00,54.3,52.3,29.07,South,175,16.6,21.3,93,0.00,,,0.00,WUHU21623XXSP,2013-01-31 08:57:00,
2013-01-31 04:04:00,54.3,52.3,29.07,SW,228,6.7,21.3,93,0.00,,,0.00,WUHU21623XXSP,2013-01-31 09:04:00,
2013-01-31 04:09:00,54.3,52.3,29.07,South,183,24.8,24.8,93,0.00,,,0.00,WUHU21623XXSP,2013-01-31 09:09:00,
2013-01-31 04:14:00,54.5,52.5,29.09,SSW,206,24.2,24.8,93,0.00,,,0.00,WUHU21623XXSP,2013-01-31 09:14:00,
2013-01-31 04:20:00,54.3,52.3,29.09,SW,228,19.7,24.2,93,0.00,,,0.00,WUHU21623XXSP,2013-01-31 09:20:00,
2013-01-31 04:27:00,54.0,51.9,29.09,NW,318,21.3,21.5,93,0.00,,,0.00,WUHU21623XXSP,2013-01-31 09:27:00,
2013-01-31 04:32:00,53.8,51.8,29.10,SSW,206,8.5,28.6,93,0.00,,,0.00,WUHU21623XXSP,2013-01-31 09:32:00,
2013-01-31 04:39:00,53.8,51.8,29.11,SSE,161,17.9,21.3,93,0.00,,,0.00,WUHU21623XXSP,2013-01-31 09:39:00,
2013-01-31 04:46:00,54.1,52.3,29.11,NW,318,21.3,21.3,93,0.00,,,0.00,WUHU21623XXSP,2013-01-31 09:46:00,
2013-01-31 04:53:00,54.5,52.7,29.11,SSW,206,10.7,21.3,93,0.00,,,0.00,WUHU21623XXSP,2013-01-31 09:53:00,
2013-01-31 05:01:00,55.0,53.0,29.11,NW,318,21.3,21.3,93,0.00,,,0.00,WUHU21623XXSP,2013-01-31 10:01:00,
2013-01-31 05:06:00,55.2,53.2,29.12,NNW,327,12.6,21.3,93,0.00,,,0.00,WUHU21623XXSP,2013-01-31 10:06:00,
2013-01-31 05:13:00,55.2,53.2,29.11,SW,228,6.9,21.3,93,0.00,,,0.00,WUHU21623XXSP,2013-01-31 10:13:00,
2013-01-31 05:19:00,55.2,53.2,29.09,NW,309,13.6,21.3,93,0.00,,,0.00,WUHU21623XXSP,2013-01-31 10:19:00,
2013-01-31 05:24:00,55.4,53.4,29.09,SSW,197,8.9,21.3,93,0.00,,,0.00,WUHU21623XXSP,2013-01-31 10:24:00,
2013-01-31 05:31:00,55.2,53.2,29.08,SW,228,4.5,10.3,93,0.00,,,0.00,WUHU21623XXSP,2013-01-31 10:31:00,
2013-01-31 05:38:00,55.2,53.2,29.08,SW,228,3.6,10.7,93,0.00,,,0.00,WUHU21623XXSP,2013-01-31 10:38:00,
2013-01-31 05:44:00,55.2,53.2,29.06,South,183,2.0,11.9,93,0.00,,,0.00,WUHU21623XXSP,2013-01-31 10:44:00,
2013-01-31 05:50:00,55.2,53.2,29.05,SSE,161,8.7,8.7,93,0.00,,,0.00,WUHU21623XXSP,2013-01-31 10:50:00,
2013-01-31 05:56:00,55.2,53.2,29.02,South,183,9.6,9.6,93,0.00,,,0.00,WUHU21623XXSP,2013-01-31 10:56:00,
2013-01-31 06:03:00,54.7,53.0,29.04,SW,228,9.4,13.9,93,0.00,,,0.00,WUHU21623XXSP,2013-01-31 11:03:00,
2013-01-31 06:09:00,54.5,52.2,29.05,SE,138,9.6,13.9,92,0.00,,,0.00,WUHU21623XXSP,2013-01-31 11:09:00,
2013-01-31 06:16:00,54.1,51.8,29.04,SSW,206,14.1,20.8,92,0.00,,,0.00,WUHU21623XXSP,2013-01-31 11:16:00,
2013-01-31 06:22:00,53.8,51.5,29.04,SSW,206,19.5,20.8,92,0.00,,,0.00,WUHU21623XXSP,2013-01-31 11:22:00,
2013-01-31 06:27:00,53.6,51.0,29.05,South,183,18.1,19.5,91,0.00,,,0.00,WUHU21623XXSP,2013-01-31 11:27:00,
2013-01-31 06:34:00,53.2,50.6,29.05,South,183,6.7,22.6,91,0.00,,,0.00,WUHU21623XXSP,2013-01-31 11:34:00,
2013-01-31 06:40:00,53.1,50.6,29.06,SSE,161,20.8,20.8,91,0.00,,,0.00,WUHU21623XXSP,2013-01-31 11:40:00,
2013-01-31 06:47:00,52.9,50.3,29.05,SW,228,12.8,20.8,91,0.00,,,0.00,WUHU21623XXSP,2013-01-31 11:47:00,
2013-01-31 06:53:00,52.7,50.1,29.06,SSW,192,14.1,17.7,91,0.00,,,0.00,WUHU21623XXSP,2013-01-31 11:53:00,
2013-01-31 06:59:00,52.3,49.9,29.06,SSW,206,21.3,21.3,91,0.00,,,0.00,WUHU21623XXSP,2013-01-31 11:59:00,
2013-01-31 07:06:00,52.3,49.7,29.10,WNW,296,12.8,21.3,91,0.00,,,0.00,WUHU21623XXSP,2013-01-31 12:06:00,
2013-01-31 07:12:00,52.2,49.3,29.11,West,273,21.0,21.0,90,0.00,,,0.00,WUHU21623XXSP,2013-01-31 12:12:00,
2013-01-31 07:19:00,51.4,48.4,29.12,NNW,341,8.3,21.0,89,0.00,,,0.00,WUHU21623XXSP,2013-01-31 12:19:00,
2013-01-31 07:25:00,50.7,46.9,29.14,WNW,296,19.7,19.7,87,0.00,,,0.00,WUHU21623XXSP,2013-01-31 12:25:00,
2013-01-31 07:32:00,50.2,46.1,29.15,NW,318,18.1,19.7,86,0.00,,,0.00,WUHU21623XXSP,2013-01-31 12:32:00,
2013-01-31 07:38:00,49.8,45.1,29.15,West,273,6.9,18.1,85,0.00,,,0.00,WUHU21623XXSP,2013-01-31 12:38:00,
2013-01-31 07:45:00,49.3,44.0,29.16,West,273,8.5,14.8,82,0.00,,,0.00,WUHU21623XXSP,2013-01-31 12:45:00,
2013-01-31 07:51:00,48.9,43.3,29.16,NW,318,13.9,14.8,81,0.00,,,0.00,WUHU21623XXSP,2013-01-31 12:51:00,
2013-01-31 07:57:00,48.7,42.8,29.17,WSW,251,5.4,13.9,80,0.00,,,0.00,WUHU21623XXSP,2013-01-31 12:57:00,
2013-01-31 08:04:00,48.4,42.4,29.17,West,273,9.8,9.8,80,0.00,,,0.00,WUHU21623XXSP,2013-01-31 13:04:00,
2013-01-31 08:10:00,48.0,41.4,29.18,WNW,296,9.4,20.8,78,0.00,,,0.00,WUHU21623XXSP,2013-01-31 13:10:00,
2013-01-31 08:17:00,47.8,41.3,29.20,SW,228,9.4,13.6,77,0.00,,,0.00,WUHU21623XXSP,2013-01-31 13:17:00,
2013-01-31 08:23:00,47.3,40.6,29.20,NW,318,8.3,9.4,76,0.00,,,0.00,WUHU21623XXSP,2013-01-31 13:23:00,
2013-01-31 08:30:00,47.1,39.6,29.22,West,273,15.7,22.6,75,0.00,,,0.00,WUHU21623XXSP,2013-01-31 13:30:00,
2013-01-31 08:37:00,46.9,38.7,29.22,SW,228,9.2,19.2,73,0.00,,,0.00,WUHU21623XXSP,2013-01-31 13:37:00,
2013-01-31 08:44:00,46.6,38.4,29.23,West,273,4.3,9.2,73,0.00,,,0.00,WUHU21623XXSP,2013-01-31 13:44:00,
2013-01-31 08:50:00,46.4,38.2,29.24,WSW,251,19.5,19.5,72,0.00,,,0.00,WUHU21623XXSP,2013-01-31 13:50:00,
2013-01-31 08:56:00,46.2,37.7,29.24,West,273,24.4,24.4,72,0.00,,,0.00,WUHU21623XXSP,2013-01-31 13:56:00,
2013-01-31 09:01:00,46.2,37.4,29.25,West,273,15.2,24.4,71,0.00,,,0.00,WUHU21623XXSP,2013-01-31 14:01:00,
2013-01-31 09:07:00,46.0,37.5,29.25,NW,318,5.1,15.2,72,0.00,,,0.00,WUHU21623XXSP,2013-01-31 14:07:00,
2013-01-31 09:15:00,46.0,37.2,29.27,West,273,18.3,26.4,71,0.00,,,0.00,WUHU21623XXSP,2013-01-31 14:15:00,
2013-01-31 09:21:00,45.7,36.1,29.27,NNW,341,16.8,26.4,69,0.00,,,0.00,WUHU21623XXSP,2013-01-31 14:21:00,
2013-01-31 09:27:00,45.7,36.5,29.29,West,273,16.8,18.3,70,0.00,,,0.00,WUHU21623XXSP,2013-01-31 14:27:00,
2013-01-31 09:34:00,45.7,36.7,29.29,NW,318,9.8,24.4,70,0.00,,,0.00,WUHU21623XXSP,2013-01-31 14:34:00,
2013-01-31 09:41:00,45.7,34.9,29.31,WSW,251,10.3,24.4,66,0.00,,,0.00,WUHU21623XXSP,2013-01-31 14:41:00,
2013-01-31 09:47:00,45.7,34.6,29.32,WNW,296,7.6,21.7,65,0.00,,,0.00,WUHU21623XXSP,2013-01-31 14:47:00,
2013-01-31 09:54:00,45.7,34.6,29.32,NW,318,20.4,21.7,65,0.00,,,0.00,WUHU21623XXSP,2013-01-31 14:54:00,
2013-01-31 10:00:00,45.7,34.6,29.33,NW,318,5.6,20.4,65,0.00,,,0.00,WUHU21623XXSP,2013-01-31 15:00:00,
2013-01-31 10:07:00,46.0,34.9,29.33,West,273,13.0,14.5,65,0.00,,,0.00,WUHU21623XXSP,2013-01-31 15:07:00,
2013-01-31 10:13:00,46.0,34.9,29.34,West,273,19.7,19.7,64,0.00,,,0.00,WUHU21623XXSP,2013-01-31 15:13:00,
2013-01-31 10:19:00,45.7,34.3,29.34,WNW,296,19.7,19.7,64,0.00,,,0.00,WUHU21623XXSP,2013-01-31 15:19:00,
2013-01-31 10:26:00,46.0,34.1,29.35,West,273,21.7,21.7,63,0.00,,,0.00,WUHU21623XXSP,2013-01-31 15:26:00,
2013-01-31 10:33:00,46.0,33.7,29.35,NNW,341,14.3,24.6,62,0.00,,,0.00,WUHU21623XXSP,2013-01-31 15:33:00,
2013-01-31 10:40:00,46.2,33.9,29.35,West,273,1.6,24.6,62,0.00,,,0.00,WUHU21623XXSP,2013-01-31 15:40:00,
2013-01-31 10:46:00,46.2,34.3,29.35,West,273,8.3,10.1,63,0.00,,,0.00,WUHU21623XXSP,2013-01-31 15:46:00,
2013-01-31 10:52:00,46.6,34.2,29.35,West,273,14.8,14.8,61,0.00,,,0.00,WUHU21623XXSP,2013-01-31 15:52:00,
2013-01-31 10:59:00,46.6,33.8,29.35,West,273,21.9,21.9,61,0.00,,,0.00,WUHU21623XXSP,2013-01-31 15:59:00,
2013-01-31 11:05:00,46.6,33.4,29.35,WSW,251,10.3,21.9,61,0.00,,,0.00,WUHU21623XXSP,2013-01-31 16:05:00,
2013-01-31 11:12:00,46.6,33.4,29.36,West,273,17.9,17.9,60,0.00,,,0.00,WUHU21623XXSP,2013-01-31 16:12:00,
2013-01-31 11:18:00,46.6,33.4,29.36,West,273,12.5,17.9,59,0.00,,,0.00,WUHU21623XXSP,2013-01-31 16:18:00,
2013-01-31 11:25:00,46.6,33.4,29.36,West,273,15.7,19.0,60,0.00,,,0.00,WUHU21623XXSP,2013-01-31 16:25:00,
2013-01-31 11:31:00,46.6,32.5,29.36,WSW,251,22.1,22.1,58,0.00,,,0.00,WUHU21623XXSP,2013-01-31 16:31:00,
2013-01-31 11:38:00,46.2,32.2,29.37,WSW,251,8.1,22.1,58,0.00,,,0.00,WUHU21623XXSP,2013-01-31 16:38:00,
2013-01-31 11:44:00,46.2,32.2,29.37,West,273,10.5,12.3,58,0.00,,,0.00,WUHU21623XXSP,2013-01-31 16:44:00,
2013-01-31 11:50:00,46.4,32.4,29.37,NNW,341,11.6,18.8,58,0.00,,,0.00,WUHU21623XXSP,2013-01-31 16:50:00,
2013-01-31 11:57:00,46.2,32.2,29.37,WNW,296,10.7,18.8,58,0.00,,,0.00,WUHU21623XXSP,2013-01-31 16:57:00,
2013-01-31 12:03:00,46.2,32.2,29.36,WSW,251,11.2,11.2,58,0.00,,,0.00,WUHU21623XXSP,2013-01-31 17:03:00,
2013-01-31 12:10:00,46.6,32.1,29.38,West,273,13.9,17.4,57,0.00,,,0.00,WUHU21623XXSP,2013-01-31 17:10:00,
2013-01-31 12:16:00,46.2,30.8,29.38,SW,228,12.3,17.4,55,0.00,,,0.00,WUHU21623XXSP,2013-01-31 17:16:00,
2013-01-31 12:22:00,46.0,31.1,29.38,NW,318,7.8,12.3,56,0.00,,,0.00,WUHU21623XXSP,2013-01-31 17:22:00,
2013-01-31 12:29:00,45.7,29.9,29.39,WSW,251,7.2,13.2,54,0.00,,,0.00,WUHU21623XXSP,2013-01-31 17:29:00,
2013-01-31 12:36:00,45.7,29.9,29.38,NNW,341,11.9,13.4,54,0.00,,,0.00,WUHU21623XXSP,2013-01-31 17:36:00,
2013-01-31 12:42:00,45.3,29.6,29.39,WNW,296,11.4,13.4,54,0.00,,,0.00,WUHU21623XXSP,2013-01-31 17:42:00,
2013-01-31 12:48:00,45.3,30.0,29.40,West,261,7.9,11.4,55,0.00,,,0.00,WUHU21623XXSP,2013-01-31 17:48:00,
2013-01-31 12:55:00,45.1,29.4,29.40,West,273,8.5,8.5,54,0.00,,,0.00,WUHU21623XXSP,2013-01-31 17:55:00,
2013-01-31 13:01:00,45.1,29.9,29.39,WSW,251,5.8,8.5,55,0.00,,,0.00,WUHU21623XXSP,2013-01-31 18:01:00,
2013-01-31 13:08:00,45.0,29.7,29.40,NNW,341,7.6,13.2,55,0.00,,,0.00,WUHU21623XXSP,2013-01-31 18:08:00,
2013-01-31 13:14:00,45.0,29.7,29.41,WNW,296,12.8,12.8,55,0.00,,,0.00,WUHU21623XXSP,2013-01-31 18:14:00,
2013-01-31 13:21:00,45.0,28.8,29.40,WNW,296,20.6,20.6,53,0.00,,,0.00,WUHU21623XXSP,2013-01-31 18:21:00,
2013-01-31 13:27:00,45.0,29.3,29.40,SW,228,7.2,20.6,53,0.00,,,0.00,WUHU21623XXSP,2013-01-31 18:27:00,
2013-01-31 13:34:00,44.8,28.8,29.41,West,273,6.3,14.5,54,0.00,,,0.00,WUHU21623XXSP,2013-01-31 18:34:00,
2013-01-31 13:40:00,45.0,28.8,29.40,WNW,296,11.2,11.2,53,0.00,,,0.00,WUHU21623XXSP,2013-01-31 18:40:00,
2013-01-31 13:47:00,44.8,29.1,29.42,WSW,251,13.2,14.1,54,0.00,,,0.00,WUHU21623XXSP,2013-01-31 18:47:00,
2013-01-31 13:53:00,44.8,28.7,29.42,West,273,10.7,14.1,53,0.00,,,0.00,WUHU21623XXSP,2013-01-31 18:53:00,
2013-01-31 13:59:00,44.8,28.8,29.43,West,273,12.3,12.3,54,0.00,,,0.00,WUHU21623XXSP,2013-01-31 18:59:00,
2013-01-31 14:06:00,44.8,28.7,29.43,WNW,296,11.2,17.9,53,0.00,,,0.00,WUHU21623XXSP,2013-01-31 19:06:00,
2013-01-31 14:12:00,45.0,29.3,29.43,WSW,251,11.0,17.9,54,0.00,,,0.00,WUHU21623XXSP,2013-01-31 19:12:00,
2013-01-31 14:19:00,45.0,29.3,29.44,WSW,251,9.2,16.8,54,0.00,,,0.00,WUHU21623XXSP,2013-01-31 19:19:00,
2013-01-31 14:25:00,45.1,29.0,29.45,WSW,251,9.2,12.8,54,0.00,,,0.00,WUHU21623XXSP,2013-01-31 19:25:00,
2013-01-31 14:32:00,45.3,29.1,29.45,West,273,20.1,20.1,53,0.00,,,0.00,WUHU21623XXSP,2013-01-31 19:32:00,
2013-01-31 14:38:00,45.1,28.5,29.45,West,273,6.3,20.1,52,0.00,,,0.00,WUHU21623XXSP,2013-01-31 19:38:00,
2013-01-31 14:45:00,45.3,28.2,29.45,WSW,251,14.8,22.4,51,0.00,,,0.00,WUHU21623XXSP,2013-01-31 19:45:00,
2013-01-31 14:51:00,45.3,28.2,29.46,West,273,21.3,22.4,51,0.00,,,0.00,WUHU21623XXSP,2013-01-31 19:51:00,
2013-01-31 14:57:00,45.3,28.2,29.46,WNW,296,9.2,21.3,51,0.00,,,0.00,WUHU21623XXSP,2013-01-31 19:57:00,
2013-01-31 15:04:00,45.1,27.6,29.47,WSW,251,13.4,25.3,50,0.00,,,0.00,WUHU21623XXSP,2013-01-31 20:04:00,
2013-01-31 15:11:00,45.1,27.6,29.47,WNW,296,9.4,13.4,50,0.00,,,0.00,WUHU21623XXSP,2013-01-31 20:11:00,
2013-01-31 15:17:00,45.0,26.9,29.48,WSW,251,17.2,17.2,49,0.00,,,0.00,WUHU21623XXSP,2013-01-31 20:17:00,
2013-01-31 15:24:00,44.8,26.8,29.48,WSW,251,4.7,18.3,49,0.00,,,0.00,WUHU21623XXSP,2013-01-31 20:24:00,
2013-01-31 15:30:00,44.8,27.3,29.48,WNW,296,11.2,11.9,50,0.00,,,0.00,WUHU21623XXSP,2013-01-31 20:30:00,
2013-01-31 15:36:00,44.8,26.8,29.49,WNW,296,20.1,20.1,49,0.00,,,0.00,WUHU21623XXSP,2013-01-31 20:36:00,
2013-01-31 15:43:00,44.8,26.2,29.49,West,273,8.1,24.8,48,0.00,,,0.00,WUHU21623XXSP,2013-01-31 20:43:00,
2013-01-31 15:50:00,44.4,24.8,29.50,WSW,251,11.9,11.9,46,0.00,,,0.00,WUHU21623XXSP,2013-01-31 20:50:00,
2013-01-31 15:57:00,44.2,25.2,29.50,WSW,251,9.6,12.8,47,0.00,,,0.00,WUHU21623XXSP,2013-01-31 20:57:00,
2013-01-31 16:03:00,43.9,24.9,29.51,West,273,12.8,12.8,47,0.00,,,0.00,WUHU21623XXSP,2013-01-31 21:03:00,
2013-01-31 16:09:00,43.7,24.7,29.52,SW,228,11.9,17.9,47,0.00,,,0.00,WUHU21623XXSP,2013-01-31 21:09:00,
2013-01-31 16:16:00,43.5,25.1,29.52,WSW,251,10.5,17.9,48,0.00,,,0.00,WUHU21623XXSP,2013-01-31 21:16:00,
2013-01-31 16:22:00,43.3,25.5,29.53,SW,228,10.5,14.3,49,0.00,,,0.00,WUHU21623XXSP,2013-01-31 21:22:00,
2013-01-31 16:29:00,43.2,25.3,29.53,South,183,3.6,14.3,49,0.00,,,0.00,WUHU21623XXSP,2013-01-31 21:29:00,
2013-01-31 16:36:00,42.8,24.4,29.54,West,273,21.9,21.9,48,0.00,,,0.00,WUHU21623XXSP,2013-01-31 21:36:00,
2013-01-31 16:42:00,42.4,24.1,29.54,WSW,251,7.4,21.9,48,0.00,,,0.00,WUHU21623XXSP,2013-01-31 21:42:00,
2013-01-31 16:48:00,41.9,23.2,29.54,West,260,14.2,16.8,47,0.00,,,0.00,WUHU21623XXSP,2013-01-31 21:48:00,
2013-01-31 16:55:00,41.5,23.2,29.55,WNW,296,22.4,22.4,48,0.00,,,0.00,WUHU21623XXSP,2013-01-31 21:55:00,
2013-01-31 17:01:00,41.5,23.2,29.55,West,273,21.0,22.4,47,0.00,,,0.00,WUHU21623XXSP,2013-01-31 22:01:00,
2013-01-31 17:07:00,41.2,22.8,29.56,WNW,296,6.3,21.0,48,0.00,,,0.00,WUHU21623XXSP,2013-01-31 22:07:00,
2013-01-31 17:14:00,40.8,23.0,29.56,West,273,10.3,21.3,49,0.00,,,0.00,WUHU21623XXSP,2013-01-31 22:14:00,
2013-01-31 17:20:00,40.6,23.4,29.57,WNW,296,11.0,21.3,50,0.00,,,0.00,WUHU21623XXSP,2013-01-31 22:20:00,
2013-01-31 17:27:00,40.3,23.5,29.58,NW,318,12.3,12.3,51,0.00,,,0.00,WUHU21623XXSP,2013-01-31 22:27:00,
2013-01-31 17:33:00,40.1,23.8,29.59,West,273,11.6,12.3,52,0.00,,,0.00,WUHU21623XXSP,2013-01-31 22:33:00,
2013-01-31 17:40:00,39.9,24.1,29.59,West,273,9.8,11.6,53,0.00,,,0.00,WUHU21623XXSP,2013-01-31 22:40:00,
2013-01-31 17:46:00,39.7,24.3,29.60,WSW,251,11.2,11.9,54,0.00,,,0.00,WUHU21623XXSP,2013-01-31 22:46:00,
2013-01-31 17:52:00,39.6,24.2,29.61,NW,318,19.0,19.0,54,0.00,,,0.00,WUHU21623XXSP,2013-01-31 22:52:00,
2013-01-31 17:59:00,39.4,24.0,29.61,NNE,26,4.7,19.0,54,0.00,,,0.00,WUHU21623XXSP,2013-01-31 22:59:00,
2013-01-31 18:05:00,38.8,23.1,29.62,SW,228,6.7,15.4,53,0.00,,,0.00,WUHU21623XXSP,2013-01-31 23:05:00,
2013-01-31 18:12:00,38.8,23.1,29.63,NNW,341,5.4,17.0,53,0.00,,,0.00,WUHU21623XXSP,2013-01-31 23:12:00,
2013-01-31 18:18:00,38.5,22.7,29.64,WNW,296,4.7,5.4,52,0.00,,,0.00,WUHU21623XXSP,2013-01-31 23:18:00,
2013-01-31 18:25:00,38.1,22.2,29.64,SSW,206,8.1,8.1,52,0.00,,,0.00,WUHU21623XXSP,2013-01-31 23:25:00,
2013-01-31 18:31:00,37.9,21.4,29.65,West,273,8.1,18.8,51,0.00,,,0.00,WUHU21623XXSP,2013-01-31 23:31:00,
2013-01-31 18:37:00,37.8,21.4,29.66,West,273,5.1,18.8,51,0.00,,,0.00,WUHU21623XXSP,2013-01-31 23:37:00,
2013-01-31 18:44:00,37.6,21.1,29.66,WSW,251,5.8,17.9,51,0.00,,,0.00,WUHU21623XXSP,2013-01-31 23:44:00,
2013-01-31 18:50:00,37.6,21.1,29.66,WNW,296,8.5,18.6,51,0.00,,,0.00,WUHU21623XXSP,2013-01-31 23:50:00,
2013-01-31 18:57:00,37.4,20.9,29.66,NW,318,6.0,18.6,51,0.00,,,0.00,WUHU21623XXSP,2013-01-31 23:57:00,
2013-01-31 19:03:00,37.2,20.9,29.67,West,273,8.7,11.4,51,0.00,,,0.00,WUHU21623XXSP,2013-02-01 00:03:00,
2013-01-31 19:10:00,37.2,20.8,29.67,NW,318,4.7,11.4,51,0.00,,,0.00,WUHU21623XXSP,2013-02-01 00:10:00,
2013-01-31 19:16:00,37.2,20.8,29.67,West,273,7.6,11.2,51,0.00,,,0.00,WUHU21623XXSP,2013-02-01 00:16:00,
2013-01-31 19:22:00,37.2,20.8,29.68,West,273,2.0,22.1,51,0.00,,,0.00,WUHU21623XXSP,2013-02-01 00:22:00,
2013-01-31 19:29:00,37.2,20.8,29.68,WNW,296,4.5,4.5,51,0.00,,,0.00,WUHU21623XXSP,2013-02-01 00:29:00,
2013-01-31 19:35:00,37.2,20.8,29.68,West,273,12.5,12.5,51,0.00,,,0.00,WUHU21623XXSP,2013-02-01 00:35:00,
2013-01-31 19:42:00,37.0,20.6,29.68,West,273,3.8,12.5,51,0.00,,,0.00,WUHU21623XXSP,2013-02-01 00:42:00,
2013-01-31 19:48:00,36.9,20.4,29.68,West,273,9.6,9.6,51,0.00,,,0.00,WUHU21623XXSP,2013-02-01 00:48:00,
2013-01-31 19:54:00,36.9,20.4,29.68,WNW,296,8.7,9.6,51,0.00,,,0.00,WUHU21623XXSP,2013-02-01 00:54:00,
2013-01-31 20:01:00,36.7,20.3,29.68,WSW,251,4.9,10.7,51,0.00,,,0.00,WUHU21623XXSP,2013-02-01 01:01:00,
2013-01-31 20:07:00,36.5,20.3,29.69,West,273,3.1,4.9,52,0.00,,,0.00,WUHU21623XXSP,2013-02-01 01:07:00,
2013-01-31 20:14:00,36.5,20.5,29.70,West,273,2.0,4.5,52,0.00,,,0.00,WUHU21623XXSP,2013-02-01 01:14:00,
2013-01-31 20:20:00,36.7,20.7,29.69,West,273,4.3,4.3,52,0.00,,,0.00,WUHU21623XXSP,2013-02-01 01:20:00,
2013-01-31 20:27:00,36.5,21.0,29.70,NW,318,2.2,10.5,53,0.00,,,0.00,WUHU21623XXSP,2013-02-01 01:27:00,
2013-01-31 20:33:00,36.5,21.0,29.70,NW,318,8.7,8.7,53,0.00,,,0.00,WUHU21623XXSP,2013-02-01 01:33:00,
2013-01-31 20:40:00,36.3,21.2,29.70,WNW,296,12.3,12.3,54,0.00,,,0.00,WUHU21623XXSP,2013-02-01 01:40:00,
2013-01-31 20:46:00,36.3,21.2,29.71,West,273,10.5,12.3,54,0.00,,,0.00,WUHU21623XXSP,2013-02-01 01:46:00,
2013-01-31 20:52:00,36.1,21.5,29.71,West,273,10.5,12.3,55,0.00,,,0.00,WUHU21623XXSP,2013-02-01 01:52:00,
2013-01-31 20:59:00,36.0,22.2,29.71,West,273,4.5,10.5,57,0.00,,,0.00,WUHU21623XXSP,2013-02-01 01:59:00,
2013-01-31 21:05:00,35.8,22.0,29.70,SSW,206,5.8,11.9,57,0.00,,,0.00,WUHU21623XXSP,2013-02-01 02:05:00,
2013-01-31 21:12:00,35.8,22.5,29.71,WSW,251,5.1,5.8,58,0.00,,,0.00,WUHU21623XXSP,2013-02-01 02:12:00,
2013-01-31 21:18:00,35.6,22.5,29.72,SW,228,11.6,11.6,58,0.00,,,0.00,WUHU21623XXSP,2013-02-01 02:18:00,
2013-01-31 21:25:00,35.4,22.1,29.72,WNW,296,14.1,14.1,58,0.00,,,0.00,WUHU21623XXSP,2013-02-01 02:25:00,
2013-01-31 21:31:00,35.2,22.0,29.72,WSW,251,4.9,14.1,58,0.00,,,0.00,WUHU21623XXSP,2013-02-01 02:31:00,
2013-01-31 21:38:00,35.2,22.0,29.72,West,273,13.6,13.6,58,0.00,,,0.00,WUHU21623XXSP,2013-02-01 02:38:00,
2013-01-31 21:44:00,35.2,22.0,29.73,SSW,206,1.6,13.6,58,0.00,,,0.00,WUHU21623XXSP,2013-02-01 02:44:00,
2013-01-31 21:50:00,34.9,22.2,29.73,WNW,296,6.0,6.0,59,0.00,,,0.00,WUHU21623XXSP,2013-02-01 02:50:00,
2013-01-31 21:57:00,34.9,22.0,29.73,WSW,251,7.8,8.5,59,0.00,,,0.00,WUHU21623XXSP,2013-02-01 02:57:00,
2013-01-31 22:03:00,34.7,21.4,29.72,West,273,11.2,21.7,58,0.00,,,0.00,WUHU21623XXSP,2013-02-01 03:03:00,
2013-01-31 22:10:00,34.3,20.2,29.72,WSW,251,11.6,23.5,56,0.00,,,0.00,WUHU21623XXSP,2013-02-01 03:10:00,
2013-01-31 22:17:00,34.3,20.2,29.72,NW,318,11.0,11.6,56,0.00,,,0.00,WUHU21623XXSP,2013-02-01 03:17:00,
2013-01-31 22:23:00,34.3,19.8,29.73,SW,228,11.9,20.4,55,0.00,,,0.00,WUHU21623XXSP,2013-02-01 03:23:00,
2013-01-31 22:29:00,34.2,19.1,29.73,WSW,251,7.6,11.9,54,0.00,,,0.00,WUHU21623XXSP,2013-02-01 03:29:00,
2013-01-31 22:36:00,34.0,18.5,29.73,SSW,206,8.9,8.9,52,0.00,,,0.00,WUHU21623XXSP,2013-02-01 03:36:00,
2013-01-31 22:42:00,33.8,17.5,29.74,NW,310,9.9,11.2,51,0.00,,,0.00,WUHU21623XXSP,2013-02-01 03:42:00,
2013-01-31 22:49:00,33.6,17.8,29.73,North,3,6.9,11.6,52,0.00,,,0.00,WUHU21623XXSP,2013-02-01 03:49:00,
2013-01-31 22:55:00,33.6,17.3,29.74,WNW,294,5.2,15.2,51,0.00,,,0.00,WUHU21623XXSP,2013-02-01 03:55:00,
2013-01-31 23:02:00,33.6,17.3,29.74,WNW,296,9.2,9.2,51,0.00,,,0.00,WUHU21623XXSP,2013-02-01 04:02:00,
2013-01-31 23:08:00,33.4,17.2,29.75,NW,312,11.7,17.4,51,0.00,,,0.00,WUHU21623XXSP,2013-02-01 04:08:00,
2013-01-31 23:15:00,33.4,17.2,29.75,WSW,251,6.3,17.4,51,0.00,,,0.00,WUHU21623XXSP,2013-02-01 04:15:00,
2013-01-31 23:21:00,33.4,17.2,29.76,WNW,296,14.3,15.7,51,0.00,,,0.00,WUHU21623XXSP,2013-02-01 04:21:00,
2013-01-31 23:27:00,33.3,17.0,29.76,West,273,5.4,15.7,51,0.00,,,0.00,WUHU21623XXSP,2013-02-01 04:27:00,
2013-01-31 23:34:00,33.3,17.0,29.76,NW,318,7.6,12.8,51,0.00,,,0.00,WUHU21623XXSP,2013-02-01 04:34:00,
2013-01-31 23:40:00,33.3,17.0,29.76,NNW,341,2.7,12.8,51,0.00,,,0.00,WUHU21623XXSP,2013-02-01 04:40:00,
2013-01-31 23:47:00,33.3,17.0,29.76,West,273,18.3,18.3,51,0.00,,,0.00,WUHU21623XXSP,2013-02-01 04:47:00,
2013-01-31 23:53:00,33.1,16.4,29.76,WNW,296,15.0,18.3,50,0.00,,,0.00,WUHU21623XXSP,2013-02-01 04:53:00,